sensor_id;sensor_type;location;lat;lon;timestamp;pressure;altitude;pressure_sealevel;temperature;humidity
11268;BME280;49397;47.474;9.416;2022-08-03T00:02:24;95492.97;;;19.81;67.90
11268;BME280;49397;47.474;9.416;2022-08-03T00:04:50;95496.34;;;19.71;67.46
11268;BME280;49397;47.474;9.416;2022-08-03T00:07:15;95495.97;;;19.72;68.10
11268;BME280;49397;47.474;9.416;2022-08-03T00:09:41;95502.66;;;19.71;68.13
11268;BME280;49397;47.474;9.416;2022-08-03T00:12:07;95491.88;;;19.63;68.61
11268;BME280;49397;47.474;9.416;2022-08-03T00:14:33;95493.38;;;19.60;68.90
11268;BME280;49397;47.474;9.416;2022-08-03T00:16:59;95485.94;;;19.61;68.12
11268;BME280;49397;47.474;9.416;2022-08-03T00:19:24;95480.91;;;19.43;69.02
11268;BME280;49397;47.474;9.416;2022-08-03T00:21:50;95487.50;;;19.39;69.59
11268;BME280;49397;47.474;9.416;2022-08-03T00:24:15;95480.38;;;19.34;69.38
11268;BME280;49397;47.474;9.416;2022-08-03T00:26:41;95484.03;;;19.42;69.08
11268;BME280;49397;47.474;9.416;2022-08-03T00:29:06;95486.34;;;19.40;69.40
11268;BME280;49397;47.474;9.416;2022-08-03T00:31:32;95474.78;;;19.31;69.44
11268;BME280;49397;47.474;9.416;2022-08-03T00:33:58;95487.81;;;19.34;69.84
11268;BME280;49397;47.474;9.416;2022-08-03T00:36:23;95479.56;;;19.34;69.53
11268;BME280;49397;47.474;9.416;2022-08-03T00:38:48;95489.34;;;19.31;70.13
11268;BME280;49397;47.474;9.416;2022-08-03T00:41:14;95491.72;;;19.14;69.93
11268;BME280;49397;47.474;9.416;2022-08-03T00:43:40;95485.19;;;19.22;70.06
11268;BME280;49397;47.474;9.416;2022-08-03T00:46:05;95474.13;;;19.18;70.20
11268;BME280;49397;47.474;9.416;2022-08-03T00:48:31;95471.75;;;19.17;70.05
11268;BME280;49397;47.474;9.416;2022-08-03T00:50:56;95478.91;;;19.02;71.50
11268;BME280;49397;47.474;9.416;2022-08-03T00:53:23;95482.25;;;18.92;71.70
11268;BME280;49397;47.474;9.416;2022-08-03T00:55:48;95483.47;;;18.95;71.63
11268;BME280;49397;47.474;9.416;2022-08-03T00:58:14;95482.97;;;18.89;71.58
11268;BME280;49397;47.474;9.416;2022-08-03T01:00:40;95479.50;;;18.92;71.84
11268;BME280;49397;47.474;9.416;2022-08-03T01:03:08;95486.06;;;18.88;72.56
11268;BME280;49397;47.474;9.416;2022-08-03T01:08:21;95479.72;;;18.84;72.39
11268;BME280;49397;47.474;9.416;2022-08-03T01:16:31;95475.69;;;18.78;72.83
11268;BME280;49397;47.474;9.416;2022-08-03T01:25:21;95479.47;;;18.73;72.87
11268;BME280;49397;47.474;9.416;2022-08-03T01:28:14;95462.84;;;18.47;73.78
11268;BME280;49397;47.474;9.416;2022-08-03T01:30:44;95470.94;;;18.59;73.43
11268;BME280;49397;47.474;9.416;2022-08-03T01:33:21;95467.06;;;18.60;73.45
11268;BME280;49397;47.474;9.416;2022-08-03T01:35:57;95471.53;;;18.49;73.58
11268;BME280;49397;47.474;9.416;2022-08-03T01:38:27;95470.16;;;18.40;74.03
11268;BME280;49397;47.474;9.416;2022-08-03T01:40:55;95467.09;;;18.45;73.62
11268;BME280;49397;47.474;9.416;2022-08-03T01:43:24;95465.94;;;18.46;73.46
11268;BME280;49397;47.474;9.416;2022-08-03T01:45:53;95467.34;;;18.55;73.30
11268;BME280;49397;47.474;9.416;2022-08-03T01:48:19;95465.41;;;18.56;72.46
11268;BME280;49397;47.474;9.416;2022-08-03T01:50:47;95462.66;;;18.56;72.89
11268;BME280;49397;47.474;9.416;2022-08-03T01:53:17;95463.50;;;18.60;73.02
11268;BME280;49397;47.474;9.416;2022-08-03T01:55:46;95454.09;;;18.61;72.85
11268;BME280;49397;47.474;9.416;2022-08-03T01:58:14;95452.31;;;18.68;72.73
11268;BME280;49397;47.474;9.416;2022-08-03T02:00:41;95455.91;;;18.72;71.31
11268;BME280;49397;47.474;9.416;2022-08-03T02:03:11;95458.88;;;18.64;72.57
11268;BME280;49397;47.474;9.416;2022-08-03T02:05:38;95464.53;;;18.71;71.79
11268;BME280;49397;47.474;9.416;2022-08-03T02:08:07;95467.78;;;18.57;72.60
11268;BME280;49397;47.474;9.416;2022-08-03T02:10:35;95457.44;;;18.51;73.12
11268;BME280;49397;47.474;9.416;2022-08-03T02:13:04;95471.31;;;18.58;72.08
11268;BME280;49397;47.474;9.416;2022-08-03T02:15:31;95465.81;;;18.58;72.94
11268;BME280;49397;47.474;9.416;2022-08-03T02:17:57;95473.56;;;18.52;73.70
11268;BME280;49397;47.474;9.416;2022-08-03T02:20:26;95466.09;;;18.53;72.78
11268;BME280;49397;47.474;9.416;2022-08-03T02:22:52;95467.78;;;18.57;71.90
11268;BME280;49397;47.474;9.416;2022-08-03T02:25:17;95473.41;;;18.64;71.62
11268;BME280;49397;47.474;9.416;2022-08-03T02:27:55;95466.97;;;18.57;72.53
11268;BME280;49397;47.474;9.416;2022-08-03T02:30:28;95463.41;;;18.56;73.32
11268;BME280;49397;47.474;9.416;2022-08-03T02:32:56;95464.94;;;18.54;72.88
11268;BME280;49397;47.474;9.416;2022-08-03T02:35:24;95459.75;;;18.49;74.07
11268;BME280;49397;47.474;9.416;2022-08-03T02:37:58;95460.47;;;18.46;73.94
11268;BME280;49397;47.474;9.416;2022-08-03T02:40:27;95464.44;;;18.33;73.71
11268;BME280;49397;47.474;9.416;2022-08-03T02:42:56;95451.69;;;18.40;74.16
11268;BME280;49397;47.474;9.416;2022-08-03T02:45:25;95443.38;;;18.37;74.02
11268;BME280;49397;47.474;9.416;2022-08-03T02:47:55;95453.72;;;18.43;73.71
11268;BME280;49397;47.474;9.416;2022-08-03T02:50:23;95450.34;;;18.34;73.83
11268;BME280;49397;47.474;9.416;2022-08-03T02:52:51;95452.69;;;18.17;74.47
11268;BME280;49397;47.474;9.416;2022-08-03T02:55:19;95449.09;;;18.13;74.62
11268;BME280;49397;47.474;9.416;2022-08-03T02:57:46;95449.53;;;18.15;74.51
11268;BME280;49397;47.474;9.416;2022-08-03T03:00:13;95447.78;;;18.06;74.42
11268;BME280;49397;47.474;9.416;2022-08-03T03:02:40;95452.81;;;18.04;74.83
11268;BME280;49397;47.474;9.416;2022-08-03T03:05:07;95459.13;;;18.05;74.40
11268;BME280;49397;47.474;9.416;2022-08-03T03:07:34;95453.38;;;17.94;74.89
11268;BME280;49397;47.474;9.416;2022-08-03T03:10:02;95447.53;;;17.96;74.26
11268;BME280;49397;47.474;9.416;2022-08-03T03:12:28;95450.09;;;18.04;74.12
11268;BME280;49397;47.474;9.416;2022-08-03T03:14:55;95451.03;;;18.12;74.01
11268;BME280;49397;47.474;9.416;2022-08-03T03:17:21;95453.88;;;18.16;74.01
11268;BME280;49397;47.474;9.416;2022-08-03T03:19:48;95451.25;;;18.23;73.31
11268;BME280;49397;47.474;9.416;2022-08-03T03:22:16;95447.09;;;18.29;72.72
11268;BME280;49397;47.474;9.416;2022-08-03T03:24:43;95451.78;;;18.28;72.97
11268;BME280;49397;47.474;9.416;2022-08-03T03:27:10;95449.56;;;18.34;72.98
11268;BME280;49397;47.474;9.416;2022-08-03T03:29:36;95450.81;;;18.36;73.54
11268;BME280;49397;47.474;9.416;2022-08-03T03:32:02;95452.59;;;18.29;73.89
11268;BME280;49397;47.474;9.416;2022-08-03T03:34:28;95459.31;;;18.31;73.35
11268;BME280;49397;47.474;9.416;2022-08-03T03:36:56;95462.88;;;18.32;74.33
11268;BME280;49397;47.474;9.416;2022-08-03T03:39:22;95462.78;;;18.28;73.78
11268;BME280;49397;47.474;9.416;2022-08-03T03:41:47;95465.66;;;18.16;74.55
11268;BME280;49397;47.474;9.416;2022-08-03T03:44:13;95469.38;;;18.08;74.09
11268;BME280;49397;47.474;9.416;2022-08-03T03:46:39;95460.53;;;18.15;73.55
11268;BME280;49397;47.474;9.416;2022-08-03T03:49:05;95452.03;;;18.04;75.13
11268;BME280;49397;47.474;9.416;2022-08-03T03:51:31;95467.97;;;17.98;75.16
11268;BME280;49397;47.474;9.416;2022-08-03T03:53:58;95463.63;;;17.97;74.57
11268;BME280;49397;47.474;9.416;2022-08-03T03:56:24;95463.47;;;17.90;74.53
11268;BME280;49397;47.474;9.416;2022-08-03T03:58:50;95457.34;;;17.81;74.87
11268;BME280;49397;47.474;9.416;2022-08-03T04:01:16;95468.00;;;17.83;74.89
11268;BME280;49397;47.474;9.416;2022-08-03T04:03:42;95468.06;;;17.86;75.84
11268;BME280;49397;47.474;9.416;2022-08-03T04:06:07;95458.63;;;17.84;75.67
11268;BME280;49397;47.474;9.416;2022-08-03T04:08:51;95466.03;;;17.83;75.80
11268;BME280;49397;47.474;9.416;2022-08-03T04:11:51;95465.41;;;17.90;75.71
11268;BME280;49397;47.474;9.416;2022-08-03T04:14:24;95465.78;;;17.88;75.48
11268;BME280;49397;47.474;9.416;2022-08-03T04:16:56;95471.53;;;17.83;75.33
11268;BME280;49397;47.474;9.416;2022-08-03T04:19:46;95462.22;;;17.88;75.43
11268;BME280;49397;47.474;9.416;2022-08-03T04:22:17;95469.22;;;17.85;75.66
11268;BME280;49397;47.474;9.416;2022-08-03T04:24:47;95465.78;;;17.88;75.28
11268;BME280;49397;47.474;9.416;2022-08-03T04:27:15;95477.72;;;17.96;75.35
11268;BME280;49397;47.474;9.416;2022-08-03T04:29:46;95471.09;;;17.97;75.29
11268;BME280;49397;47.474;9.416;2022-08-03T04:32:12;95473.91;;;18.00;74.79
11268;BME280;49397;47.474;9.416;2022-08-03T04:34:38;95468.16;;;17.90;75.27
11268;BME280;49397;47.474;9.416;2022-08-03T04:37:11;95480.31;;;17.89;75.40
11268;BME280;49397;47.474;9.416;2022-08-03T04:39:38;95474.97;;;17.96;74.85
11268;BME280;49397;47.474;9.416;2022-08-03T04:42:06;95485.16;;;18.11;74.47
11268;BME280;49397;47.474;9.416;2022-08-03T04:44:40;95479.81;;;18.18;74.10
11268;BME280;49397;47.474;9.416;2022-08-03T04:47:07;95490.44;;;18.20;73.77
11268;BME280;49397;47.474;9.416;2022-08-03T04:49:35;95495.75;;;18.28;74.18
11268;BME280;49397;47.474;9.416;2022-08-03T04:52:01;95496.31;;;18.37;72.74
11268;BME280;49397;47.474;9.416;2022-08-03T04:54:26;95491.03;;;18.44;72.55
11268;BME280;49397;47.474;9.416;2022-08-03T04:56:52;95499.28;;;18.44;72.43
11268;BME280;49397;47.474;9.416;2022-08-03T04:59:17;95498.56;;;18.47;72.29
11268;BME280;49397;47.474;9.416;2022-08-03T05:01:43;95504.78;;;18.44;72.33
11268;BME280;49397;47.474;9.416;2022-08-03T05:04:09;95493.94;;;18.51;71.75
11268;BME280;49397;47.474;9.416;2022-08-03T05:06:34;95498.38;;;18.56;71.75
11268;BME280;49397;47.474;9.416;2022-08-03T05:09:00;95491.44;;;18.62;71.13
11268;BME280;49397;47.474;9.416;2022-08-03T05:11:26;95501.47;;;18.73;71.01
11268;BME280;49397;47.474;9.416;2022-08-03T05:13:51;95494.31;;;18.69;71.57
11268;BME280;49397;47.474;9.416;2022-08-03T05:16:17;95497.59;;;18.74;71.52
11268;BME280;49397;47.474;9.416;2022-08-03T05:18:43;95503.09;;;18.74;72.33
11268;BME280;49397;47.474;9.416;2022-08-03T05:21:10;95499.47;;;18.89;72.40
11268;BME280;49397;47.474;9.416;2022-08-03T05:23:39;95500.84;;;18.99;71.35
11268;BME280;49397;47.474;9.416;2022-08-03T05:26:04;95505.88;;;19.16;70.79
11268;BME280;49397;47.474;9.416;2022-08-03T05:28:30;95506.47;;;19.25;70.26
11268;BME280;49397;47.474;9.416;2022-08-03T05:30:56;95506.41;;;19.40;69.53
11268;BME280;49397;47.474;9.416;2022-08-03T05:33:21;95502.25;;;19.50;68.93
11268;BME280;49397;47.474;9.416;2022-08-03T05:35:47;95502.81;;;19.59;69.15
11268;BME280;49397;47.474;9.416;2022-08-03T05:38:12;95501.03;;;19.70;68.85
11268;BME280;49397;47.474;9.416;2022-08-03T05:40:38;95504.78;;;19.81;68.04
11268;BME280;49397;47.474;9.416;2022-08-03T05:43:03;95495.91;;;19.91;67.39
11268;BME280;49397;47.474;9.416;2022-08-03T05:45:29;95500.75;;;19.98;66.77
11268;BME280;49397;47.474;9.416;2022-08-03T05:47:54;95502.84;;;20.08;66.69
11268;BME280;49397;47.474;9.416;2022-08-03T05:50:20;95501.84;;;20.16;66.62
11268;BME280;49397;47.474;9.416;2022-08-03T05:52:46;95503.91;;;20.22;66.12
11268;BME280;49397;47.474;9.416;2022-08-03T05:55:12;95497.78;;;20.32;65.80
11268;BME280;49397;47.474;9.416;2022-08-03T05:57:38;95492.78;;;20.41;66.38
11268;BME280;49397;47.474;9.416;2022-08-03T06:00:06;95498.78;;;20.47;68.21
11268;BME280;49397;47.474;9.416;2022-08-03T06:02:33;95487.03;;;20.50;68.59
11268;BME280;49397;47.474;9.416;2022-08-03T06:04:58;95504.97;;;20.66;68.32
11268;BME280;49397;47.474;9.416;2022-08-03T06:07:24;95497.06;;;20.65;68.64
11268;BME280;49397;47.474;9.416;2022-08-03T06:09:50;95496.47;;;20.78;69.09
11268;BME280;49397;47.474;9.416;2022-08-03T06:12:15;95503.16;;;20.77;69.67
11268;BME280;49397;47.474;9.416;2022-08-03T06:14:41;95501.31;;;20.88;68.09
11268;BME280;49397;47.474;9.416;2022-08-03T06:17:06;95505.41;;;20.98;67.90
11268;BME280;49397;47.474;9.416;2022-08-03T06:19:32;95502.81;;;21.09;67.58
11268;BME280;49397;47.474;9.416;2022-08-03T06:21:58;95504.09;;;21.18;66.64
11268;BME280;49397;47.474;9.416;2022-08-03T06:24:23;95489.19;;;21.23;66.88
11268;BME280;49397;47.474;9.416;2022-08-03T06:26:49;95511.38;;;21.33;66.91
11268;BME280;49397;47.474;9.416;2022-08-03T06:29:14;95503.97;;;21.41;67.45
11268;BME280;49397;47.474;9.416;2022-08-03T06:31:39;95507.59;;;21.48;66.94
11268;BME280;49397;47.474;9.416;2022-08-03T06:34:05;95500.47;;;21.47;65.95
11268;BME280;49397;47.474;9.416;2022-08-03T06:36:31;95506.91;;;21.58;66.04
11268;BME280;49397;47.474;9.416;2022-08-03T06:38:57;95509.75;;;21.69;65.89
11268;BME280;49397;47.474;9.416;2022-08-03T06:41:24;95517.38;;;21.75;67.06
11268;BME280;49397;47.474;9.416;2022-08-03T06:43:50;95513.50;;;21.83;66.07
11268;BME280;49397;47.474;9.416;2022-08-03T06:46:15;95518.72;;;21.92;66.49
11268;BME280;49397;47.474;9.416;2022-08-03T06:48:41;95512.13;;;22.03;66.93
11268;BME280;49397;47.474;9.416;2022-08-03T06:51:06;95518.03;;;22.02;67.57
11268;BME280;49397;47.474;9.416;2022-08-03T06:53:32;95517.72;;;22.14;66.44
11268;BME280;49397;47.474;9.416;2022-08-03T06:55:57;95521.00;;;22.26;66.91
11268;BME280;49397;47.474;9.416;2022-08-03T06:58:23;95516.75;;;22.39;66.53
11268;BME280;49397;47.474;9.416;2022-08-03T07:00:48;95520.34;;;22.47;66.09
11268;BME280;49397;47.474;9.416;2022-08-03T07:03:14;95537.41;;;22.53;66.98
11268;BME280;49397;47.474;9.416;2022-08-03T07:05:41;95528.75;;;22.58;66.72
11268;BME280;49397;47.474;9.416;2022-08-03T07:08:06;95535.16;;;22.65;66.13
11268;BME280;49397;47.474;9.416;2022-08-03T07:10:32;95537.94;;;22.72;66.19
11268;BME280;49397;47.474;9.416;2022-08-03T07:12:57;95531.63;;;22.75;66.33
11268;BME280;49397;47.474;9.416;2022-08-03T07:15:24;95528.56;;;22.91;66.35
11268;BME280;49397;47.474;9.416;2022-08-03T07:17:49;95536.13;;;23.01;66.86
11268;BME280;49397;47.474;9.416;2022-08-03T07:20:15;95528.22;;;22.99;66.36
11268;BME280;49397;47.474;9.416;2022-08-03T07:22:43;95532.59;;;23.04;65.45
11268;BME280;49397;47.474;9.416;2022-08-03T07:25:09;95518.81;;;23.11;65.71
11268;BME280;49397;47.474;9.416;2022-08-03T07:27:35;95521.63;;;23.25;64.87
11268;BME280;49397;47.474;9.416;2022-08-03T07:30:00;95520.47;;;23.26;64.45
11268;BME280;49397;47.474;9.416;2022-08-03T07:32:26;95531.09;;;23.20;64.03
11268;BME280;49397;47.474;9.416;2022-08-03T07:34:52;95525.63;;;23.27;64.01
11268;BME280;49397;47.474;9.416;2022-08-03T07:37:18;95528.06;;;23.39;64.91
11268;BME280;49397;47.474;9.416;2022-08-03T07:39:44;95536.78;;;23.55;64.44
11268;BME280;49397;47.474;9.416;2022-08-03T07:42:09;95528.81;;;23.40;64.50
11268;BME280;49397;47.474;9.416;2022-08-03T07:44:35;95528.09;;;23.60;63.86
11268;BME280;49397;47.474;9.416;2022-08-03T07:47:00;95530.50;;;23.65;63.21
11268;BME280;49397;47.474;9.416;2022-08-03T07:49:26;95518.66;;;23.82;63.42
11268;BME280;49397;47.474;9.416;2022-08-03T07:51:51;95517.09;;;23.81;62.95
11268;BME280;49397;47.474;9.416;2022-08-03T07:54:35;95516.75;;;24.08;62.84
11268;BME280;49397;47.474;9.416;2022-08-03T07:57:01;95517.16;;;24.10;63.98
11268;BME280;49397;47.474;9.416;2022-08-03T07:59:26;95517.16;;;24.24;64.38
11268;BME280;49397;47.474;9.416;2022-08-03T08:01:52;95520.31;;;24.36;62.90
11268;BME280;49397;47.474;9.416;2022-08-03T08:04:18;95525.84;;;24.50;62.41
11268;BME280;49397;47.474;9.416;2022-08-03T08:06:43;95513.56;;;24.58;63.18
11268;BME280;49397;47.474;9.416;2022-08-03T08:09:09;95512.00;;;24.50;64.14
11268;BME280;49397;47.474;9.416;2022-08-03T08:11:36;95507.25;;;24.30;63.71
11268;BME280;49397;47.474;9.416;2022-08-03T08:14:02;95514.78;;;24.47;63.30
11268;BME280;49397;47.474;9.416;2022-08-03T08:16:29;95516.75;;;24.60;63.59
11268;BME280;49397;47.474;9.416;2022-08-03T08:18:54;95510.81;;;24.51;62.95
11268;BME280;49397;47.474;9.416;2022-08-03T08:21:20;95518.34;;;24.72;64.61
11268;BME280;49397;47.474;9.416;2022-08-03T08:23:45;95511.56;;;24.87;63.58
11268;BME280;49397;47.474;9.416;2022-08-03T08:26:11;95516.72;;;24.88;62.69
11268;BME280;49397;47.474;9.416;2022-08-03T08:28:37;95518.25;;;25.10;61.90
11268;BME280;49397;47.474;9.416;2022-08-03T08:31:02;95520.22;;;25.17;62.83
11268;BME280;49397;47.474;9.416;2022-08-03T08:33:28;95520.59;;;25.22;61.86
11268;BME280;49397;47.474;9.416;2022-08-03T08:35:54;95509.91;;;25.10;61.34
11268;BME280;49397;47.474;9.416;2022-08-03T08:38:20;95521.44;;;25.09;61.68
11268;BME280;49397;47.474;9.416;2022-08-03T08:40:48;95517.41;;;25.24;62.98
11268;BME280;49397;47.474;9.416;2022-08-03T08:43:14;95514.22;;;25.40;62.79
11268;BME280;49397;47.474;9.416;2022-08-03T08:45:40;95508.19;;;25.52;61.81
11268;BME280;49397;47.474;9.416;2022-08-03T08:48:06;95524.91;;;25.48;62.32
11268;BME280;49397;47.474;9.416;2022-08-03T08:50:34;95517.66;;;25.61;61.59
11268;BME280;49397;47.474;9.416;2022-08-03T08:53:01;95506.94;;;25.67;60.75
11268;BME280;49397;47.474;9.416;2022-08-03T08:55:28;95518.00;;;25.74;60.77
11268;BME280;49397;47.474;9.416;2022-08-03T08:57:59;95516.84;;;25.64;60.61
11268;BME280;49397;47.474;9.416;2022-08-03T09:00:25;95512.03;;;25.75;61.19
11268;BME280;49397;47.474;9.416;2022-08-03T09:02:51;95525.94;;;25.75;60.64
11268;BME280;49397;47.474;9.416;2022-08-03T09:05:18;95511.75;;;25.59;60.31
11268;BME280;49397;47.474;9.416;2022-08-03T09:07:45;95512.91;;;25.62;60.97
11268;BME280;49397;47.474;9.416;2022-08-03T09:10:13;95512.03;;;25.75;59.72
11268;BME280;49397;47.474;9.416;2022-08-03T09:12:41;95503.28;;;25.80;60.84
11268;BME280;49397;47.474;9.416;2022-08-03T09:17:44;95514.94;;;26.23;60.38
11268;BME280;49397;47.474;9.416;2022-08-03T09:20:10;95509.38;;;26.19;59.53
11268;BME280;49397;47.474;9.416;2022-08-03T09:25:15;95522.03;;;26.31;59.49
11268;BME280;49397;47.474;9.416;2022-08-03T09:27:45;95513.28;;;26.29;59.73
11268;BME280;49397;47.474;9.416;2022-08-03T09:30:16;95525.06;;;26.50;59.29
11268;BME280;49397;47.474;9.416;2022-08-03T09:32:42;95515.78;;;26.60;59.12
11268;BME280;49397;47.474;9.416;2022-08-03T09:35:13;95511.38;;;26.70;60.01
11268;BME280;49397;47.474;9.416;2022-08-03T09:37:39;95507.53;;;26.98;57.95
11268;BME280;49397;47.474;9.416;2022-08-03T09:40:05;95508.69;;;27.00;56.06
11268;BME280;49397;47.474;9.416;2022-08-03T09:42:31;95514.25;;;27.00;55.57
11268;BME280;49397;47.474;9.416;2022-08-03T09:45:03;95509.50;;;26.97;56.62
11268;BME280;49397;47.474;9.416;2022-08-03T09:47:33;95510.69;;;27.37;57.01
11268;BME280;49397;47.474;9.416;2022-08-03T09:50:05;95520.31;;;27.62;55.59
11268;BME280;49397;47.474;9.416;2022-08-03T09:52:33;95511.81;;;27.73;55.58
11268;BME280;49397;47.474;9.416;2022-08-03T09:54:59;95519.06;;;27.67;54.13
11268;BME280;49397;47.474;9.416;2022-08-03T09:57:27;95517.25;;;27.83;55.00
11268;BME280;49397;47.474;9.416;2022-08-03T09:59:53;95518.81;;;27.88;53.29
11268;BME280;49397;47.474;9.416;2022-08-03T10:02:28;95520.50;;;27.78;52.94
11268;BME280;49397;47.474;9.416;2022-08-03T10:04:53;95514.06;;;27.55;53.00
11268;BME280;49397;47.474;9.416;2022-08-03T10:07:20;95512.63;;;27.40;51.86
11268;BME280;49397;47.474;9.416;2022-08-03T10:12:19;95502.06;;;27.88;53.10
11268;BME280;49397;47.474;9.416;2022-08-03T10:14:46;95496.75;;;27.97;54.25
11268;BME280;49397;47.474;9.416;2022-08-03T10:17:12;95495.91;;;28.00;53.92
11268;BME280;49397;47.474;9.416;2022-08-03T10:19:37;95507.38;;;28.32;51.70
11268;BME280;49397;47.474;9.416;2022-08-03T10:22:10;95502.69;;;28.52;51.74
11268;BME280;49397;47.474;9.416;2022-08-03T10:24:38;95499.38;;;28.61;51.62
11268;BME280;49397;47.474;9.416;2022-08-03T10:27:10;95500.50;;;28.86;52.19
11268;BME280;49397;47.474;9.416;2022-08-03T10:29:41;95498.00;;;28.92;51.41
11268;BME280;49397;47.474;9.416;2022-08-03T10:32:13;95498.84;;;28.89;50.70
11268;BME280;49397;47.474;9.416;2022-08-03T10:34:42;95498.81;;;28.69;52.10
11268;BME280;49397;47.474;9.416;2022-08-03T10:37:10;95496.69;;;28.27;50.54
11268;BME280;49397;47.474;9.416;2022-08-03T10:39:37;95496.94;;;28.63;49.44
11268;BME280;49397;47.474;9.416;2022-08-03T10:42:20;95496.38;;;28.94;49.40
11268;BME280;49397;47.474;9.416;2022-08-03T10:44:52;95495.34;;;29.08;49.21
11268;BME280;49397;47.474;9.416;2022-08-03T10:47:20;95498.09;;;28.65;49.96
11268;BME280;49397;47.474;9.416;2022-08-03T10:49:47;95494.78;;;28.93;50.74
11268;BME280;49397;47.474;9.416;2022-08-03T10:52:13;95483.59;;;28.93;49.66
11268;BME280;49397;47.474;9.416;2022-08-03T10:54:41;95484.03;;;29.15;50.23
11268;BME280;49397;47.474;9.416;2022-08-03T10:57:52;95482.16;;;29.47;48.59
11268;BME280;49397;47.474;9.416;2022-08-03T11:00:20;95480.88;;;29.72;48.61
11268;BME280;49397;47.474;9.416;2022-08-03T11:05:32;95480.44;;;29.34;46.99
11268;BME280;49397;47.474;9.416;2022-08-03T11:10:46;95482.22;;;29.64;46.79
11268;BME280;49397;47.474;9.416;2022-08-03T11:13:17;95482.22;;;29.44;46.57
11268;BME280;49397;47.474;9.416;2022-08-03T11:15:45;95474.28;;;29.62;47.15
11268;BME280;49397;47.474;9.416;2022-08-03T11:18:12;95478.63;;;29.43;45.66
11268;BME280;49397;47.474;9.416;2022-08-03T11:20:55;95476.56;;;29.67;45.54
11268;BME280;49397;47.474;9.416;2022-08-03T11:23:42;95480.56;;;30.21;45.59
11268;BME280;49397;47.474;9.416;2022-08-03T11:26:18;95472.34;;;29.95;45.65
11268;BME280;49397;47.474;9.416;2022-08-03T11:28:46;95476.16;;;30.20;44.25
11268;BME280;49397;47.474;9.416;2022-08-03T11:34:09;95468.75;;;29.78;43.79
11268;BME280;49397;47.474;9.416;2022-08-03T11:39:45;95465.41;;;30.19;41.66
11268;BME280;49397;47.474;9.416;2022-08-03T11:44:49;95467.47;;;30.15;42.33
11268;BME280;49397;47.474;9.416;2022-08-03T11:47:16;95458.09;;;30.41;41.08
11268;BME280;49397;47.474;9.416;2022-08-03T11:49:53;95466.22;;;30.67;40.39
11268;BME280;49397;47.474;9.416;2022-08-03T11:52:19;95462.09;;;30.72;40.86
11268;BME280;49397;47.474;9.416;2022-08-03T11:54:44;95460.63;;;30.35;38.56
11268;BME280;49397;47.474;9.416;2022-08-03T11:57:10;95454.13;;;30.38;39.24
11268;BME280;49397;47.474;9.416;2022-08-03T11:59:36;95458.81;;;29.93;38.18
11268;BME280;49397;47.474;9.416;2022-08-03T12:02:09;95448.00;;;30.27;39.69
11268;BME280;49397;47.474;9.416;2022-08-03T12:04:52;95454.75;;;30.30;38.31
11268;BME280;49397;47.474;9.416;2022-08-03T12:07:18;95455.69;;;30.07;38.26
11268;BME280;49397;47.474;9.416;2022-08-03T12:10:11;95444.88;;;30.41;36.87
11268;BME280;49397;47.474;9.416;2022-08-03T12:12:37;95447.72;;;30.86;39.49
11268;BME280;49397;47.474;9.416;2022-08-03T12:15:04;95431.78;;;30.67;36.23
11268;BME280;49397;47.474;9.416;2022-08-03T12:17:37;95447.91;;;30.95;38.64
11268;BME280;49397;47.474;9.416;2022-08-03T12:20:05;95439.91;;;31.22;38.34
11268;BME280;49397;47.474;9.416;2022-08-03T12:22:39;95436.00;;;31.48;36.08
11268;BME280;49397;47.474;9.416;2022-08-03T12:25:05;95440.34;;;31.49;37.41
11268;BME280;49397;47.474;9.416;2022-08-03T12:27:32;95432.47;;;31.32;37.69
11268;BME280;49397;47.474;9.416;2022-08-03T12:29:58;95437.41;;;30.83;38.40
11268;BME280;49397;47.474;9.416;2022-08-03T12:32:27;95437.94;;;31.07;37.11
11268;BME280;49397;47.474;9.416;2022-08-03T12:34:53;95436.38;;;30.45;35.86
11268;BME280;49397;47.474;9.416;2022-08-03T12:37:24;95440.47;;;30.88;37.30
11268;BME280;49397;47.474;9.416;2022-08-03T12:39:51;95433.84;;;31.24;36.15
11268;BME280;49397;47.474;9.416;2022-08-03T12:42:17;95421.22;;;31.03;35.57
11268;BME280;49397;47.474;9.416;2022-08-03T12:44:43;95431.84;;;31.24;37.48
11268;BME280;49397;47.474;9.416;2022-08-03T12:47:10;95433.19;;;31.48;38.28
11268;BME280;49397;47.474;9.416;2022-08-03T12:49:49;95426.31;;;31.37;34.83
11268;BME280;49397;47.474;9.416;2022-08-03T12:52:16;95427.19;;;31.05;36.67
11268;BME280;49397;47.474;9.416;2022-08-03T12:54:56;95431.09;;;30.95;37.01
11268;BME280;49397;47.474;9.416;2022-08-03T12:57:22;95429.59;;;31.19;37.14
11268;BME280;49397;47.474;9.416;2022-08-03T12:59:47;95430.69;;;30.80;36.68
11268;BME280;49397;47.474;9.416;2022-08-03T13:02:21;95424.72;;;30.78;35.05
11268;BME280;49397;47.474;9.416;2022-08-03T13:04:49;95423.31;;;30.70;34.40
11268;BME280;49397;47.474;9.416;2022-08-03T13:07:16;95431.13;;;30.79;35.26
11268;BME280;49397;47.474;9.416;2022-08-03T13:10:00;95420.59;;;30.67;36.25
11268;BME280;49397;47.474;9.416;2022-08-03T13:12:27;95419.84;;;30.82;37.21
11268;BME280;49397;47.474;9.416;2022-08-03T13:14:56;95426.25;;;30.95;34.61
11268;BME280;49397;47.474;9.416;2022-08-03T13:17:22;95425.22;;;31.18;33.70
11268;BME280;49397;47.474;9.416;2022-08-03T13:19:48;95425.44;;;31.24;35.26
11268;BME280;49397;47.474;9.416;2022-08-03T13:22:16;95425.75;;;31.13;35.76
11268;BME280;49397;47.474;9.416;2022-08-03T13:24:43;95426.03;;;30.74;34.70
11268;BME280;49397;47.474;9.416;2022-08-03T13:27:10;95421.53;;;30.92;35.27
11268;BME280;49397;47.474;9.416;2022-08-03T13:29:36;95418.66;;;30.96;34.86
11268;BME280;49397;47.474;9.416;2022-08-03T13:32:02;95417.34;;;31.13;34.57
11268;BME280;49397;47.474;9.416;2022-08-03T13:34:28;95405.03;;;31.11;33.93
11268;BME280;49397;47.474;9.416;2022-08-03T13:36:54;95407.38;;;31.12;34.31
11268;BME280;49397;47.474;9.416;2022-08-03T13:39:19;95409.25;;;31.03;32.46
11268;BME280;49397;47.474;9.416;2022-08-03T13:41:45;95412.41;;;31.05;33.48